Time;durP1;ratioP1;P1;durP2;ratioP2;P2;SDS_P1;SDS_P2;PMS_P1;PMS_P2;Temp;Humidity;BMP_temperature;BMP_pressure;BME280_temperature;BME280_humidity;BME280_pressure;Samples;Min_cycle;Max_cycle;Signal;HPM_P1;HPM_P2
2023/09/29 00:01:08;;;;;;;10.77;6.47;;;15.30;99.90;;;;;;2621773;46;20121;31
2023/09/29 00:03:46;;;;;;;10.20;5.80;;;15.30;99.90;;;;;;2621182;46;20875;31
2023/09/29 00:06:23;;;;;;;7.68;5.40;;;15.20;99.90;;;;;;2602452;54;20279;31
2023/09/29 00:09:06;;;;;;;7.97;5.55;;;15.20;99.90;;;;;;2619017;46;20121;31
2023/09/29 00:11:42;;;;;;;13.35;6.85;;;15.20;99.90;;;;;;2621629;46;20038;31
2023/09/29 00:14:24;;;;;;;10.38;5.38;;;15.10;99.90;;;;;;2602443;54;21249;31
2023/09/29 00:17:00;;;;;;;9.40;6.25;;;15.10;99.90;;;;;;2621773;46;20038;31
2023/09/29 00:19:38;;;;;;;8.55;6.05;;;15.00;99.90;;;;;;2602682;54;20056;31
2023/09/29 00:22:18;;;;;;;9.27;5.03;;;15.00;99.90;;;;;;2603320;54;20113;31
2023/09/29 00:25:06;;;;;;;11.75;6.28;;;15.00;99.90;;;;;;2603337;54;20668;31
2023/09/29 00:27:43;;;;;;;12.50;6.43;;;14.90;99.90;;;;;;2603345;54;21502;31
2023/09/29 00:30:25;;;;;;;10.85;6.28;;;14.90;99.90;;;;;;2603328;54;21518;31
2023/09/29 00:33:02;;;;;;;11.40;6.90;;;14.90;99.90;;;;;;2603495;54;20081;31
2023/09/29 00:35:40;;;;;;;15.13;6.13;;;14.80;99.90;;;;;;2701616;39;21324;31
2023/09/29 00:38:14;;;;;;;10.68;5.78;;;14.80;99.90;;;;;;2603354;54;20894;31
2023/09/29 00:40:55;;;;;;;12.25;6.00;;;14.80;99.90;;;;;;2603344;54;20022;31
2023/09/29 00:43:32;;;;;;;12.50;6.30;;;14.70;99.90;;;;;;2701692;39;20428;31
2023/09/29 00:46:08;;;;;;;12.80;6.93;;;14.70;99.90;;;;;;2701695;39;20424;31
2023/09/29 00:48:44;;;;;;;12.80;6.35;;;14.70;99.90;;;;;;2603502;54;20030;31
2023/09/29 00:51:21;;;;;;;8.88;5.80;;;14.70;99.90;;;;;;2603179;54;20097;31
2023/09/29 00:53:57;;;;;;;9.23;6.25;;;14.70;99.90;;;;;;2602566;54;20132;31
2023/09/29 00:56:41;;;;;;;7.97;5.30;;;14.60;99.90;;;;;;2603066;54;20026;31
2023/09/29 00:59:19;;;;;;;9.50;6.50;;;14.60;99.90;;;;;;2603031;54;20022;31
2023/09/29 01:01:53;;;;;;;10.55;5.90;;;14.60;99.90;;;;;;2603107;54;20026;31
2023/09/29 01:04:31;;;;;;;9.97;6.37;;;14.60;99.90;;;;;;2602352;54;20030;31
2023/09/29 01:07:09;;;;;;;13.45;5.82;;;14.60;99.90;;;;;;2701666;39;20641;31
2023/09/29 01:09:45;;;;;;;10.30;5.70;;;14.50;99.90;;;;;;2603099;54;20031;31
2023/09/29 01:12:41;;;;;;;11.52;6.50;;;14.50;99.90;;;;;;2602562;54;20033;31
2023/09/29 01:15:19;;;;;;;8.48;6.32;;;14.40;99.90;;;;;;2602934;54;21201;31
2023/09/29 01:17:57;;;;;;;11.30;6.55;;;14.40;99.90;;;;;;2603253;54;20046;31
2023/09/29 01:20:37;;;;;;;10.40;6.20;;;14.30;99.90;;;;;;2602807;54;20087;31
2023/09/29 01:23:15;;;;;;;10.98;6.40;;;14.30;99.90;;;;;;2603021;54;20053;31
2023/09/29 01:25:58;;;;;;;;;;;14.30;99.90;;;;;;2602342;54;20023;31
2023/09/29 01:28:37;;;;;;;11.63;5.77;;;14.20;99.90;;;;;;2604582;47;19980;31
2023/09/29 01:31:15;;;;;;;11.25;6.80;;;14.20;99.90;;;;;;2602236;54;20242;31
2023/09/29 01:33:56;;;;;;;12.30;6.30;;;14.10;99.90;;;;;;2613694;47;20919;31
2023/09/29 01:36:32;;;;;;;10.30;6.73;;;14.10;99.90;;;;;;2602237;54;20771;31
2023/09/29 01:39:08;;;;;;;;;;;14.10;99.90;;;;;;2602364;54;20916;31
2023/09/29 01:41:51;;;;;;;11.70;5.70;;;14.00;99.90;;;;;;2602261;54;19990;31
2023/09/29 01:44:28;;;;;;;8.30;5.60;;;14.00;99.90;;;;;;2609286;47;20050;31
2023/09/29 01:47:08;;;;;;;7.00;5.00;;;14.00;99.90;;;;;;2602862;54;20825;31
2023/09/29 01:49:43;;;;;;;12.80;6.63;;;14.00;99.90;;;;;;2601671;54;20022;31
2023/09/29 01:52:22;;;;;;;11.20;5.75;;;14.00;99.90;;;;;;2602155;54;20030;31
2023/09/29 01:55:06;;;;;;;12.40;6.60;;;14.00;99.90;;;;;;2602175;54;20917;31
2023/09/29 01:57:47;;;;;;;8.80;6.05;;;14.00;99.90;;;;;;2603011;54;20034;31
2023/09/29 02:03:06;;;;;;;9.77;6.20;;;14.00;99.90;;;;;;2603115;54;20029;31
2023/09/29 02:08:15;;;;;;;9.95;6.65;;;13.90;99.90;;;;;;2602958;54;20031;31
2023/09/29 02:10:54;;;;;;;9.43;6.03;;;14.00;99.90;;;;;;2602859;54;20034;31
2023/09/29 02:13:41;;;;;;;9.40;5.95;;;14.00;99.90;;;;;;2602170;54;20804;31
2023/09/29 02:16:20;;;;;;;13.38;6.78;;;13.90;99.90;;;;;;2602275;54;20860;31
2023/09/29 02:18:58;;;;;;;9.55;6.28;;;13.90;99.90;;;;;;2602791;54;20042;31
2023/09/29 02:21:36;;;;;;;9.20;5.57;;;13.90;99.90;;;;;;2602946;54;20027;31
2023/09/29 02:24:19;;;;;;;9.20;5.95;;;13.90;99.90;;;;;;2602514;54;20096;31
2023/09/29 02:27:02;;;;;;;10.70;5.90;;;13.90;99.90;;;;;;2602879;54;20037;31
2023/09/29 02:29:47;;;;;;;8.90;6.05;;;13.90;99.90;;;;;;2603568;54;20053;31
2023/09/29 02:32:26;;;;;;;8.98;5.40;;;13.90;99.90;;;;;;2622232;46;20050;31
2023/09/29 02:35:05;;;;;;;11.40;5.83;;;13.90;99.90;;;;;;2603588;54;20026;31
2023/09/29 02:37:43;;;;;;;9.00;5.70;;;13.80;99.90;;;;;;2622204;46;20026;31
2023/09/29 02:40:25;;;;;;;9.00;5.65;;;13.80;99.90;;;;;;2603847;54;20822;31
2023/09/29 02:43:06;;;;;;;9.07;5.37;;;13.80;99.90;;;;;;2602799;54;20854;31
2023/09/29 02:45:48;;;;;;;8.90;5.43;;;13.80;99.90;;;;;;2622456;46;21091;31
2023/09/29 02:48:24;;;;;;;9.02;5.30;;;13.80;99.90;;;;;;2603118;46;20936;31
2023/09/29 02:51:06;;;;;;;10.50;5.90;;;13.80;99.90;;;;;;2603661;54;20030;31
2023/09/29 02:53:43;;;;;;;19.80;6.33;;;13.80;99.90;;;;;;2602846;54;20843;31
2023/09/29 02:56:20;;;;;;;7.75;5.60;;;13.80;99.90;;;;;;2602961;54;20340;31
2023/09/29 02:58:56;;;;;;;10.27;5.72;;;13.70;99.90;;;;;;2603744;54;20880;31
2023/09/29 03:01:36;;;;;;;8.65;5.85;;;13.70;99.90;;;;;;2602829;54;20022;31
2023/09/29 03:04:16;;;;;;;10.32;5.80;;;13.70;99.90;;;;;;2603747;54;20029;31
2023/09/29 03:06:52;;;;;;;11.52;6.53;;;13.70;99.90;;;;;;2603430;54;20959;31
2023/09/29 03:09:29;;;;;;;10.40;6.10;;;13.70;99.90;;;;;;2622148;46;20046;31
2023/09/29 03:12:07;;;;;;;9.48;5.78;;;13.70;99.90;;;;;;2602698;54;20886;31
2023/09/29 03:14:45;;;;;;;14.77;6.38;;;13.70;99.90;;;;;;2622302;46;20768;31
2023/09/29 03:17:30;;;;;;;9.05;6.60;;;13.70;99.90;;;;;;2603759;54;20033;31
2023/09/29 03:20:10;;;;;;;8.90;6.60;;;13.60;99.90;;;;;;2603499;54;20052;31
2023/09/29 03:22:48;;;;;;;13.93;7.50;;;13.60;99.90;;;;;;2606114;46;20022;31
2023/09/29 03:25:23;;;;;;;8.50;6.20;;;13.60;99.90;;;;;;2603580;54;20022;31
2023/09/29 03:28:03;;;;;;;12.45;7.50;;;13.60;99.90;;;;;;2603530;54;20028;31
2023/09/29 03:30:43;;;;;;;13.35;6.90;;;13.50;99.90;;;;;;2603364;54;20030;31
2023/09/29 03:33:25;;;;;;;10.10;6.50;;;13.50;99.90;;;;;;2603798;54;20100;31
2023/09/29 03:36:03;;;;;;;10.45;5.72;;;13.50;99.90;;;;;;2603230;54;20899;31
2023/09/29 03:38:41;;;;;;;9.63;6.63;;;13.50;99.90;;;;;;2603134;54;20883;31
2023/09/29 03:41:23;;;;;;;9.18;6.07;;;13.40;99.90;;;;;;2603405;54;20027;31
2023/09/29 03:43:58;;;;;;;11.13;6.47;;;13.40;99.90;;;;;;2603287;54;20933;31
2023/09/29 03:46:35;;;;;;;10.23;6.53;;;13.40;99.90;;;;;;2603355;54;20767;31
2023/09/29 03:49:15;;;;;;;8.88;5.70;;;13.30;99.90;;;;;;2602856;54;21527;31
2023/09/29 03:51:54;;;;;;;10.48;6.05;;;13.30;99.90;;;;;;2603549;54;20772;31
2023/09/29 03:54:27;;;;;;;9.00;5.65;;;13.30;99.90;;;;;;2603323;54;20969;31
2023/09/29 03:57:09;;;;;;;9.88;6.47;;;13.30;99.90;;;;;;2603374;54;20033;31
2023/09/29 03:59:55;;;;;;;11.00;6.32;;;13.20;99.90;;;;;;2621897;46;20030;31
2023/09/29 04:02:33;;;;;;;10.32;6.20;;;13.20;99.90;;;;;;2603372;54;20116;31
2023/09/29 04:05:13;;;;;;;9.70;5.65;;;13.20;99.90;;;;;;2603352;54;20038;31
2023/09/29 04:07:49;;;;;;;8.88;6.25;;;13.20;99.90;;;;;;2603307;54;20022;31
2023/09/29 04:10:26;;;;;;;10.25;5.60;;;13.10;99.90;;;;;;2602716;54;19942;31
2023/09/29 04:13:06;;;;;;;16.02;6.63;;;13.10;99.90;;;;;;2603494;54;20058;31
2023/09/29 04:15:45;;;;;;;10.25;5.85;;;13.10;99.90;;;;;;2603223;54;20141;31
2023/09/29 04:18:20;;;;;;;8.82;5.60;;;13.10;99.90;;;;;;2602503;54;20077;31
2023/09/29 04:21:03;;;;;;;11.85;6.50;;;13.10;99.90;;;;;;2602356;54;21673;31
2023/09/29 04:23:43;;;;;;;9.70;5.78;;;13.00;99.90;;;;;;2603448;54;20026;31
2023/09/29 04:26:29;;;;;;;12.43;5.88;;;13.00;99.90;;;;;;2621651;46;20077;31
2023/09/29 04:29:07;;;;;;;9.98;5.60;;;13.00;99.90;;;;;;2603464;54;20043;31
2023/09/29 04:31:47;;;;;;;11.10;6.05;;;13.00;99.90;;;;;;2603116;54;20536;31
2023/09/29 04:34:22;;;;;;;8.40;5.85;;;12.90;99.90;;;;;;2603116;54;20883;31
2023/09/29 04:37:07;;;;;;;10.77;5.80;;;12.90;99.90;;;;;;2603130;54;20034;31
2023/09/29 04:39:46;;;;;;;13.02;5.40;;;12.90;99.90;;;;;;2603227;54;20026;31
2023/09/29 04:42:24;;;;;;;9.00;6.20;;;12.90;99.90;;;;;;2621724;46;20058;31
2023/09/29 04:44:59;;;;;;;13.50;6.55;;;12.90;99.90;;;;;;2603185;54;20930;31
2023/09/29 04:47:36;;;;;;;13.38;6.35;;;12.80;99.90;;;;;;2603000;54;20916;31
2023/09/29 04:50:19;;;;;;;8.98;6.10;;;12.80;99.90;;;;;;2701532;39;21527;31
2023/09/29 04:53:03;;;;;;;8.98;6.00;;;12.80;99.90;;;;;;2603120;54;20022;31
2023/09/29 04:55:44;;;;;;;14.48;5.97;;;12.80;99.90;;;;;;2603258;54;20052;31
2023/09/29 04:58:24;;;;;;;13.10;6.10;;;12.70;99.90;;;;;;2603166;54;20116;31
2023/09/29 05:01:03;;;;;;;10.20;6.45;;;12.70;99.90;;;;;;2603376;54;20497;31
2023/09/29 05:03:42;;;;;;;10.70;6.13;;;12.70;99.90;;;;;;2602309;54;20050;31
2023/09/29 05:06:23;;;;;;;10.13;6.43;;;12.70;99.90;;;;;;2602634;54;20831;31
2023/09/29 05:09:18;;;;;;;13.38;6.13;;;12.70;99.90;;;;;;2602541;54;20896;31
2023/09/29 05:11:53;;;;;;;9.03;6.27;;;12.70;99.90;;;;;;2603084;54;21507;31
2023/09/29 05:14:31;;;;;;;11.32;6.20;;;12.70;99.90;;;;;;2603262;54;20026;31
2023/09/29 05:17:10;;;;;;;9.70;6.10;;;12.70;99.90;;;;;;2602402;54;20038;31
2023/09/29 05:19:48;;;;;;;15.07;6.55;;;12.70;99.90;;;;;;2615761;46;20030;31
2023/09/29 05:22:31;;;;;;;9.10;6.45;;;12.70;99.90;;;;;;2602651;54;20832;31
2023/09/29 05:25:15;;;;;;;12.90;6.18;;;12.70;99.90;;;;;;2602996;54;20053;31
2023/09/29 05:27:58;;;;;;;10.20;6.40;;;12.80;99.90;;;;;;2602344;54;20116;31
2023/09/29 05:30:38;;;;;;;10.77;6.15;;;12.80;99.90;;;;;;2603212;54;20849;31
2023/09/29 05:33:17;;;;;;;8.80;5.90;;;12.80;99.90;;;;;;2602382;54;20044;31
2023/09/29 05:35:55;;;;;;;11.60;6.63;;;12.80;99.90;;;;;;2614067;47;20852;31
2023/09/29 05:38:33;;;;;;;13.80;6.10;;;12.90;99.90;;;;;;2615801;47;20036;31
2023/09/29 05:41:18;;;;;;;11.18;6.40;;;13.00;99.90;;;;;;2603069;54;20085;31
2023/09/29 05:44:00;;;;;;;11.00;6.55;;;13.20;99.90;;;;;;2603245;54;21476;31
2023/09/29 05:46:37;;;;;;;8.45;5.38;;;13.50;99.90;;;;;;2603063;54;20033;31
2023/09/29 05:49:19;;;;;;;10.00;5.75;;;13.90;99.90;;;;;;2603056;54;20081;31
2023/09/29 05:51:59;;;;;;;12.30;5.20;;;14.30;99.90;;;;;;2602919;54;20027;31
2023/09/29 05:54:38;;;;;;;6.93;4.93;;;14.70;99.90;;;;;;2621178;47;19961;31
2023/09/29 05:57:15;;;;;;;10.00;5.63;;;15.20;99.90;;;;;;2602741;54;20106;31
2023/09/29 05:59:54;;;;;;;6.88;4.93;;;15.60;99.90;;;;;;2602920;54;20085;31
2023/09/29 06:02:33;;;;;;;9.17;4.97;;;16.00;99.90;;;;;;2603182;54;20098;31
2023/09/29 06:05:12;;;;;;;10.80;5.07;;;16.40;99.90;;;;;;2621970;46;20077;31
2023/09/29 06:07:55;;;;;;;8.93;6.03;;;16.70;99.90;;;;;;2603547;54;20914;31
2023/09/29 06:10:44;;;;;;;11.55;5.20;;;17.00;99.90;;;;;;2702639;39;20536;31
2023/09/29 06:16:02;;;;;;;9.57;5.28;;;17.70;99.90;;;;;;2603752;54;20030;31
2023/09/29 06:18:43;;;;;;;10.00;5.30;;;18.20;99.90;;;;;;2603567;54;20782;31
2023/09/29 06:21:23;;;;;;;9.18;5.45;;;18.40;99.90;;;;;;2603019;54;20829;31
2023/09/29 06:23:59;;;;;;;10.05;4.88;;;18.60;99.90;;;;;;2602630;54;20037;31
2023/09/29 06:26:35;;;;;;;10.88;6.07;;;18.90;99.90;;;;;;2615658;46;20041;31
2023/09/29 06:29:11;;;;;;;;;;;19.10;99.90;;;;;;2620969;46;20499;31
2023/09/29 06:31:50;;;;;;;8.63;5.50;;;19.30;99.90;;;;;;2602836;54;19958;31
2023/09/29 06:34:26;;;;;;;8.67;5.57;;;19.60;99.90;;;;;;2618140;46;20042;31
2023/09/29 06:37:04;;;;;;;;;;;19.80;99.90;;;;;;2621919;46;20883;31
2023/09/29 06:39:42;;;;;;;10.60;5.28;;;19.90;99.90;;;;;;2621541;46;19935;31
2023/09/29 06:42:20;;;;;;;8.68;5.93;;;20.00;99.90;;;;;;2621912;46;20022;31
2023/09/29 06:45:02;;;;;;;13.38;6.20;;;20.10;99.90;;;;;;2622231;46;19941;31
2023/09/29 06:50:21;;;;;;;11.25;5.70;;;20.30;99.90;;;;;;2603052;54;20686;31
2023/09/29 06:52:59;;;;;;;11.68;6.25;;;20.40;99.90;;;;;;2602857;54;21368;31
2023/09/29 06:55:38;;;;;;;8.20;5.72;;;20.60;99.90;;;;;;2602584;54;20837;31
2023/09/29 06:58:19;;;;;;;9.43;5.65;;;20.70;99.90;;;;;;2603173;54;20022;31
2023/09/29 07:01:02;;;;;;;12.00;5.82;;;20.90;99.90;;;;;;2621866;46;20030;31
2023/09/29 07:03:41;;;;;;;7.43;5.07;;;21.10;99.90;;;;;;2603870;54;20045;31
2023/09/29 07:06:24;;;;;;;10.70;6.32;;;21.30;99.90;;;;;;2603360;54;20748;31
2023/09/29 07:09:03;;;;;;;8.90;5.05;;;21.50;99.90;;;;;;2603451;54;20596;31
2023/09/29 07:11:44;;;;;;;7.35;5.30;;;21.60;99.90;;;;;;2603609;54;20037;31
2023/09/29 07:14:26;;;;;;;10.63;6.40;;;21.90;99.90;;;;;;2621973;46;20031;31
2023/09/29 07:17:06;;;;;;;11.32;5.25;;;22.10;99.90;;;;;;2603526;54;20930;31
2023/09/29 07:19:43;;;;;;;9.95;5.40;;;22.30;99.90;;;;;;2621552;46;20030;31
2023/09/29 07:22:23;;;;;;;10.82;5.20;;;22.60;99.90;;;;;;2603555;54;20081;31
2023/09/29 07:25:06;;;;;;;8.32;5.50;;;22.90;99.90;;;;;;2603661;54;20951;31
2023/09/29 07:27:45;;;;;;;8.57;5.78;;;23.10;99.90;;;;;;2603336;54;20635;31
2023/09/29 07:30:26;;;;;;;12.47;5.10;;;23.30;99.90;;;;;;2603651;54;20027;31
2023/09/29 07:33:03;;;;;;;8.25;5.35;;;23.60;99.90;;;;;;2622059;46;20022;31
2023/09/29 07:35:40;;;;;;;7.97;5.35;;;23.90;99.90;;;;;;2720288;39;21446;31
2023/09/29 07:38:19;;;;;;;7.25;4.50;;;24.10;99.90;;;;;;2622095;46;20092;31
2023/09/29 07:41:05;;;;;;;7.40;5.15;;;24.40;99.90;;;;;;2603522;54;20871;31
2023/09/29 07:43:43;;;;;;;8.88;5.60;;;24.70;99.90;;;;;;2603458;54;20018;31
2023/09/29 07:46:18;;;;;;;8.55;5.28;;;24.90;99.90;;;;;;2603423;54;20919;31
2023/09/29 07:49:02;;;;;;;9.57;4.90;;;25.20;99.90;;;;;;2614434;46;20870;31
2023/09/29 07:51:38;;;;;;;6.70;4.55;;;25.30;99.90;;;;;;2603381;54;20033;31
2023/09/29 07:54:22;;;;;;;10.05;5.00;;;25.50;99.90;;;;;;2621428;46;20777;31
2023/09/29 07:57:00;;;;;;;9.20;5.25;;;25.60;99.90;;;;;;2621354;46;20018;31
2023/09/29 07:59:40;;;;;;;7.28;4.70;;;25.70;99.90;;;;;;2603376;54;20026;31
2023/09/29 08:02:18;;;;;;;9.85;4.82;;;25.80;99.90;;;;;;2702027;39;20378;31
2023/09/29 08:05:01;;;;;;;8.65;4.13;;;25.80;99.90;;;;;;2603439;54;20089;31
2023/09/29 08:07:46;;;;;;;6.30;4.10;;;26.00;99.90;;;;;;2603406;54;20896;31
2023/09/29 08:10:34;;;;;;;10.00;4.57;;;25.90;99.90;;;;;;2603285;54;20934;31
2023/09/29 08:13:18;;;;;;;7.78;3.67;;;26.10;99.90;;;;;;2603236;54;20030;31
2023/09/29 08:15:55;;;;;;;10.25;4.30;;;26.30;99.90;;;;;;2603221;54;19957;31
2023/09/29 08:18:34;;;;;;;4.55;3.50;;;26.30;99.90;;;;;;2603473;54;20034;31
2023/09/29 08:21:16;;;;;;;6.45;4.00;;;26.30;99.90;;;;;;2603532;54;20895;31
2023/09/29 08:23:59;;;;;;;7.95;3.80;;;26.50;99.90;;;;;;2603258;54;20032;31
2023/09/29 08:26:45;;;;;;;7.90;3.83;;;26.70;99.90;;;;;;2621723;47;20030;31
2023/09/29 08:29:23;;;;;;;11.82;4.57;;;26.90;99.90;;;;;;2603197;54;20033;31
2023/09/29 08:32:01;;;;;;;11.18;4.85;;;27.00;99.90;;;;;;2603385;54;20068;31
2023/09/29 08:34:39;;;;;;;10.57;4.35;;;27.10;99.90;;;;;;2602687;54;20760;31
2023/09/29 08:37:15;;;;;;;8.07;4.40;;;27.10;99.90;;;;;;2603342;54;20027;31
2023/09/29 08:39:53;;;;;;;;;;;27.20;99.90;;;;;;2622045;46;20042;31
2023/09/29 08:42:40;;;;;;;9.88;3.97;;;27.20;99.90;;;;;;2621699;46;19939;31
2023/09/29 08:45:19;;;;;;;9.02;4.05;;;27.40;99.90;;;;;;2621863;46;20058;31
2023/09/29 08:47:57;;;;;;;6.95;3.65;;;27.50;99.90;;;;;;2603267;54;20890;31
2023/09/29 08:50:37;;;;;;;7.65;3.53;;;27.50;99.90;;;;;;2603191;54;20034;31
2023/09/29 08:53:16;;;;;;;8.43;3.87;;;27.60;99.90;;;;;;2621863;46;20031;31
2023/09/29 08:55:56;;;;;;;6.88;3.80;;;27.80;99.90;;;;;;2621306;46;20030;31
2023/09/29 08:58:40;;;;;;;5.75;3.92;;;27.90;99.90;;;;;;2603471;54;20029;31
2023/09/29 09:04:03;;;;;;;6.43;3.83;;;28.20;99.90;;;;;;2603157;54;20026;31
2023/09/29 09:06:44;;;;;;;12.10;3.10;;;28.40;99.90;;;;;;2602562;54;20141;31
2023/09/29 09:09:36;;;;;;;5.85;3.85;;;28.50;99.90;;;;;;2602358;54;21754;31
2023/09/29 09:12:21;;;;;;;6.40;3.38;;;28.70;99.80;;;;;;2603330;54;20050;31
2023/09/29 09:15:09;;;;;;;12.98;4.68;;;28.70;99.80;;;;;;2702003;39;21051;31
2023/09/29 09:17:46;;;;;;;4.45;3.10;;;28.90;99.90;;;;;;2603393;54;20033;31
2023/09/29 09:20:33;;;;;;;5.95;4.35;;;29.00;99.70;;;;;;2602963;54;20026;31
2023/09/29 09:23:14;;;;;;;4.83;3.57;;;29.20;99.40;;;;;;2603244;54;20081;31
2023/09/29 09:25:54;;;;;;;8.80;3.53;;;29.30;99.60;;;;;;2603435;54;20026;31
2023/09/29 09:28:34;;;;;;;5.05;3.17;;;29.40;98.60;;;;;;2607101;47;20847;31
2023/09/29 09:31:16;;;;;;;5.75;3.50;;;29.40;98.30;;;;;;2603146;54;20038;31
2023/09/29 09:33:54;;;;;;;9.30;3.20;;;29.50;97.80;;;;;;2621572;47;20033;31
2023/09/29 09:36:52;;;;;;;5.43;3.38;;;29.70;97.70;;;;;;2603306;54;20030;31
2023/09/29 09:39:33;;;;;;;6.43;3.25;;;29.80;98.00;;;;;;2622636;46;20042;31
2023/09/29 09:42:11;;;;;;;6.03;3.10;;;29.80;96.90;;;;;;2702579;39;21473;31
2023/09/29 09:44:53;;;;;;;4.05;3.35;;;29.90;97.90;;;;;;2603115;54;22489;31
2023/09/29 09:47:36;;;;;;;6.07;3.03;;;30.00;98.40;;;;;;2603955;54;20052;31
2023/09/29 09:50:18;;;;;;;6.80;3.20;;;30.10;96.80;;;;;;2603876;54;20165;31
2023/09/29 09:52:59;;;;;;;7.82;3.55;;;30.10;96.80;;;;;;2605987;46;20105;31
2023/09/29 09:55:43;;;;;;;7.20;3.20;;;30.10;95.70;;;;;;2622074;46;20576;31
2023/09/29 09:58:21;;;;;;;7.20;3.30;;;30.20;95.40;;;;;;2604156;54;20258;31
2023/09/29 10:00:56;;;;;;;5.80;3.13;;;30.20;94.80;;;;;;2603939;54;20489;31
2023/09/29 10:03:37;;;;;;;4.97;2.90;;;30.10;94.80;;;;;;2603758;54;20485;31
2023/09/29 10:06:14;;;;;;;4.93;2.65;;;30.10;93.90;;;;;;2622300;46;20027;31
2023/09/29 10:09:08;;;;;;;4.22;3.25;;;30.10;95.30;;;;;;2603399;54;20042;31
2023/09/29 10:11:48;;;;;;;5.45;2.95;;;30.10;94.80;;;;;;2603762;54;20644;31
2023/09/29 10:14:29;;;;;;;4.13;2.88;;;;;;;;;;2603600;54;20032;31
2023/09/29 10:17:12;;;;;;;5.50;3.05;;;30.20;94.10;;;;;;2603762;54;20845;31
2023/09/29 10:20:09;;;;;;;4.80;3.20;;;30.20;94.10;;;;;;2622241;46;20033;31
2023/09/29 10:22:54;;;;;;;4.95;3.30;;;30.30;92.90;;;;;;2603757;54;20049;31
2023/09/29 10:25:35;;;;;;;5.00;2.90;;;30.40;94.00;;;;;;2702171;39;20514;31
2023/09/29 10:28:17;;;;;;;4.53;2.88;;;30.40;93.00;;;;;;2622220;46;20034;31
2023/09/29 10:30:58;;;;;;;6.40;3.10;;;30.40;93.40;;;;;;2603850;54;20093;31
2023/09/29 10:33:47;;;;;;;4.07;3.05;;;30.40;92.90;;;;;;2603494;54;20045;31
2023/09/29 10:36:28;;;;;;;6.55;3.22;;;30.30;91.90;;;;;;2603622;54;20022;31
2023/09/29 10:39:10;;;;;;;6.45;2.92;;;30.30;92.90;;;;;;2622551;46;20038;31
2023/09/29 10:41:47;;;;;;;5.15;3.17;;;30.30;91.30;;;;;;2621850;46;20089;31
2023/09/29 10:44:26;;;;;;;8.40;3.15;;;30.30;93.30;;;;;;2603887;54;20034;31
2023/09/29 10:47:20;;;;;;;7.50;2.88;;;30.30;91.50;;;;;;2602837;54;20031;31
2023/09/29 10:49:56;;;;;;;5.63;3.03;;;30.20;92.00;;;;;;2603458;54;20022;31
2023/09/29 10:52:40;;;;;;;4.50;2.90;;;30.10;91.30;;;;;;2603388;54;20084;31
2023/09/29 10:55:20;;;;;;;5.35;2.88;;;30.10;91.40;;;;;;2603039;54;20038;31
2023/09/29 10:58:00;;;;;;;6.13;2.78;;;30.00;91.10;;;;;;2603628;54;20042;31
2023/09/29 11:00:46;;;;;;;4.50;2.70;;;30.00;90.60;;;;;;2602821;54;20015;31
2023/09/29 11:03:30;;;;;;;4.03;2.53;;;29.90;90.20;;;;;;2702103;39;20592;31
2023/09/29 11:06:11;;;;;;;5.35;2.50;;;29.90;90.50;;;;;;2603444;54;20033;31
2023/09/29 11:11:48;;;;;;;4.15;2.50;;;30.00;91.10;;;;;;2629032;46;20148;31
2023/09/29 11:14:23;;;;;;;7.07;2.92;;;29.90;90.30;;;;;;2603413;54;20097;31
2023/09/29 11:17:10;;;;;;;4.05;2.80;;;29.90;91.10;;;;;;2603579;54;20089;31
2023/09/29 11:19:54;;;;;;;4.38;2.35;;;29.70;89.70;;;;;;2603681;54;20031;31
2023/09/29 11:22:50;;;;;;;7.05;2.50;;;29.70;90.60;;;;;;2603752;54;20832;31
2023/09/29 11:25:26;;;;;;;4.67;2.03;;;29.70;90.20;;;;;;2622072;46;20033;31
2023/09/29 11:28:15;;;;;;;5.20;2.60;;;29.70;89.90;;;;;;2607908;46;20026;31
2023/09/29 11:30:54;;;;;;;3.53;2.40;;;29.60;88.00;;;;;;2621928;46;20313;31
2023/09/29 11:33:40;;;;;;;4.07;2.10;;;29.50;88.10;;;;;;2603527;54;20026;31
2023/09/29 11:36:15;;;;;;;3.10;2.38;;;29.30;88.40;;;;;;2603503;54;20050;31
2023/09/29 11:38:57;;;;;;;5.40;2.60;;;29.30;87.50;;;;;;2603517;54;20026;31
2023/09/29 11:41:36;;;;;;;4.78;2.15;;;29.20;87.80;;;;;;2603560;54;20022;31
2023/09/29 11:44:18;;;;;;;6.23;3.00;;;29.00;88.60;;;;;;2603548;54;20053;31
2023/09/29 11:46:59;;;;;;;5.05;2.65;;;28.90;88.30;;;;;;2702110;39;20557;31
2023/09/29 11:49:39;;;;;;;3.75;2.40;;;28.80;88.70;;;;;;2603664;54;20955;31
2023/09/29 11:52:17;;;;;;;2.95;2.17;;;28.80;87.90;;;;;;2603637;54;20089;31
2023/09/29 11:54:56;;;;;;;5.40;2.40;;;28.70;87.20;;;;;;2603372;54;20511;31
2023/09/29 11:57:37;;;;;;;7.60;2.43;;;28.60;87.60;;;;;;2622158;46;20242;31
2023/09/29 12:00:21;;;;;;;3.97;2.03;;;28.50;88.60;;;;;;2607868;46;20793;31
2023/09/29 12:03:00;;;;;;;5.07;2.43;;;28.30;86.70;;;;;;2602827;54;20071;31
2023/09/29 12:05:39;;;;;;;6.82;2.35;;;28.20;87.30;;;;;;2602820;54;20900;31
2023/09/29 12:08:18;;;;;;;3.92;2.17;;;28.10;87.20;;;;;;2602816;54;20042;31
2023/09/29 12:10:57;;;;;;;2.92;2.05;;;28.10;88.30;;;;;;2614730;46;20058;31
2023/09/29 12:13:38;;;;;;;5.30;2.25;;;28.10;89.40;;;;;;2707525;39;20481;31
2023/09/29 12:16:20;;;;;;;2.53;1.67;;;28.20;87.90;;;;;;2603766;54;20026;31
2023/09/29 12:18:57;;;;;;;2.63;2.05;;;28.20;86.60;;;;;;2603618;54;20026;31
2023/09/29 12:21:34;;;;;;;6.03;2.35;;;28.20;89.10;;;;;;2603522;54;20038;31
2023/09/29 12:24:12;;;;;;;6.22;2.13;;;28.30;90.00;;;;;;2603549;54;20861;31
2023/09/29 12:26:58;;;;;;;4.30;1.95;;;28.30;90.20;;;;;;2603403;54;20935;31
2023/09/29 12:29:36;;;;;;;5.18;1.60;;;28.30;89.40;;;;;;2603496;54;20633;31
2023/09/29 12:32:21;;;;;;;2.15;1.70;;;28.30;89.90;;;;;;2621401;46;20026;31
2023/09/29 12:34:58;;;;;;;7.30;2.27;;;28.30;87.60;;;;;;2764049;31;20034;31
2023/09/29 12:37:40;;;;;;;3.90;1.80;;;28.20;84.60;;;;;;2602785;54;20879;31
2023/09/29 12:40:19;;;;;;;2.67;1.77;;;28.20;86.10;;;;;;2603346;54;20838;31
2023/09/29 12:42:58;;;;;;;3.50;1.90;;;28.20;85.90;;;;;;2603277;54;20029;31
2023/09/29 12:45:39;;;;;;;2.73;1.63;;;28.20;86.40;;;;;;2621990;46;20033;31
2023/09/29 12:48:20;;;;;;;2.47;1.73;;;28.20;86.70;;;;;;2603085;54;20242;31
2023/09/29 12:50:57;;;;;;;7.03;1.50;;;28.20;82.20;;;;;;2603204;54;20081;31
2023/09/29 12:53:34;;;;;;;3.17;1.40;;;28.10;84.40;;;;;;2603331;54;20026;31
2023/09/29 12:56:14;;;;;;;2.95;1.40;;;28.10;85.60;;;;;;2603031;54;20786;31
2023/09/29 12:58:51;;;;;;;123.38;19.25;;;28.10;85.10;;;;;;2602605;54;20903;31
2023/09/29 13:01:28;;;;;;;14.55;4.43;;;28.10;83.30;;;;;;2615531;46;20985;31
2023/09/29 13:04:09;;;;;;;4.75;2.35;;;28.10;84.30;;;;;;2603329;54;20031;31
2023/09/29 13:06:56;;;;;;;37.65;9.60;;;28.10;87.10;;;;;;2621813;46;20027;31
2023/09/29 13:09:37;;;;;;;2.65;2.00;;;28.10;84.80;;;;;;2603275;54;20136;31
2023/09/29 13:12:17;;;;;;;3.50;2.00;;;28.00;84.50;;;;;;2603146;54;20090;31
2023/09/29 13:15:08;;;;;;;2.83;1.90;;;28.10;87.00;;;;;;2603243;54;20623;31
2023/09/29 13:17:49;;;;;;;6.97;2.03;;;28.00;86.00;;;;;;2603393;54;20022;31
2023/09/29 13:20:32;;;;;;;4.75;1.95;;;28.10;86.90;;;;;;2603415;54;20811;31
2023/09/29 13:23:12;;;;;;;2.22;1.80;;;28.10;90.10;;;;;;2603441;54;20599;31
2023/09/29 13:25:51;;;;;;;3.10;1.80;;;28.10;86.10;;;;;;2603321;54;20022;31
2023/09/29 13:28:34;;;;;;;3.85;2.20;;;28.10;88.60;;;;;;2621639;46;20023;31
2023/09/29 13:31:11;;;;;;;2.90;2.00;;;28.10;87.40;;;;;;2603271;54;20855;31
2023/09/29 13:33:50;;;;;;;3.03;2.10;;;28.10;86.50;;;;;;2602717;54;20624;31
2023/09/29 13:36:36;;;;;;;3.90;2.10;;;28.00;87.20;;;;;;2606232;47;20029;31
2023/09/29 13:39:14;;;;;;;6.55;2.13;;;28.00;90.40;;;;;;2603025;54;20797;31
2023/09/29 13:41:52;;;;;;;4.15;2.20;;;28.00;88.20;;;;;;2611200;46;20038;31
2023/09/29 13:44:31;;;;;;;3.85;1.90;;;27.90;87.20;;;;;;2602299;54;20812;31
2023/09/29 13:47:08;;;;;;;3.00;1.98;;;28.00;87.50;;;;;;2602327;54;20099;31
2023/09/29 13:52:50;;;;;;;2.55;2.10;;;28.00;89.20;;;;;;2602874;54;20034;31
2023/09/29 13:55:28;;;;;;;2.38;1.45;;;27.90;88.90;;;;;;2621382;47;20892;31
2023/09/29 13:58:07;;;;;;;6.00;2.25;;;27.90;87.00;;;;;;2621538;47;20030;31
2023/09/29 14:00:48;;;;;;;4.90;2.17;;;27.90;88.80;;;;;;2603159;54;20026;31
2023/09/29 14:03:26;;;;;;;3.33;2.03;;;27.90;88.50;;;;;;2602267;54;20018;31
2023/09/29 14:06:01;;;;;;;2.88;2.00;;;27.80;90.10;;;;;;2601985;54;20365;31
2023/09/29 14:08:40;;;;;;;;;;;27.80;90.10;;;;;;2773105;31;21562;31
2023/09/29 14:11:16;;;;;;;2.75;1.92;;;27.70;91.10;;;;;;2602138;54;20757;31
2023/09/29 14:13:54;;;;;;;5.05;1.98;;;27.70;90.60;;;;;;2614145;47;20037;31
2023/09/29 14:16:38;;;;;;;4.10;2.25;;;27.60;90.70;;;;;;2602227;54;20057;31
2023/09/29 14:19:17;;;;;;;3.25;1.55;;;27.50;90.70;;;;;;2602890;54;20887;31
2023/09/29 14:21:59;;;;;;;6.25;2.42;;;27.50;90.20;;;;;;2603016;54;19949;31